sensor_id;sensor_type;location;lat;lon;timestamp;P1;durP1;ratioP1;P2;durP2;ratioP2
75386;SDS011;63966;47.914;22.266;2023-04-30T00:00:46;22.67;;;13.63;;
75386;SDS011;63966;47.914;22.266;2023-04-30T00:03:49;24.70;;;13.18;;
75386;SDS011;63966;47.914;22.266;2023-04-30T00:06:53;24.48;;;13.15;;
75386;SDS011;63966;47.914;22.266;2023-04-30T00:09:57;23.57;;;11.93;;
75386;SDS011;63966;47.914;22.266;2023-04-30T00:13:00;25.97;;;11.83;;
75386;SDS011;63966;47.914;22.266;2023-04-30T00:16:03;23.08;;;12.23;;
75386;SDS011;63966;47.914;22.266;2023-04-30T00:19:07;26.33;;;13.43;;
75386;SDS011;63966;47.914;22.266;2023-04-30T00:22:12;21.80;;;12.98;;
75386;SDS011;63966;47.914;22.266;2023-04-30T00:25:15;24.87;;;12.60;;
75386;SDS011;63966;47.914;22.266;2023-04-30T00:28:19;23.07;;;12.27;;
75386;SDS011;63966;47.914;22.266;2023-04-30T00:31:23;22.27;;;12.00;;
75386;SDS011;63966;47.914;22.266;2023-04-30T00:34:26;22.42;;;12.27;;
75386;SDS011;63966;47.914;22.266;2023-04-30T00:37:30;21.17;;;11.88;;
75386;SDS011;63966;47.914;22.266;2023-04-30T00:40:37;22.27;;;11.93;;
75386;SDS011;63966;47.914;22.266;2023-04-30T00:43:42;18.87;;;11.50;;
75386;SDS011;63966;47.914;22.266;2023-04-30T00:46:48;18.00;;;10.85;;
75386;SDS011;63966;47.914;22.266;2023-04-30T00:49:51;20.40;;;10.55;;
75386;SDS011;63966;47.914;22.266;2023-04-30T00:52:55;22.45;;;10.07;;
75386;SDS011;63966;47.914;22.266;2023-04-30T00:56:00;17.27;;;10.07;;
75386;SDS011;63966;47.914;22.266;2023-04-30T00:59:04;20.97;;;11.63;;
75386;SDS011;63966;47.914;22.266;2023-04-30T01:02:08;19.08;;;10.98;;
75386;SDS011;63966;47.914;22.266;2023-04-30T01:05:12;20.80;;;11.10;;
75386;SDS011;63966;47.914;22.266;2023-04-30T01:08:15;19.92;;;11.18;;
75386;SDS011;63966;47.914;22.266;2023-04-30T01:14:40;20.43;;;10.93;;
75386;SDS011;63966;47.914;22.266;2023-04-30T01:21:41;22.55;;;10.27;;
75386;SDS011;63966;47.914;22.266;2023-04-30T01:28:15;20.37;;;9.60;;
75386;SDS011;63966;47.914;22.266;2023-04-30T01:31:22;20.27;;;11.27;;
75386;SDS011;63966;47.914;22.266;2023-04-30T01:34:29;16.95;;;10.57;;
75386;SDS011;63966;47.914;22.266;2023-04-30T01:37:44;18.55;;;10.80;;
75386;SDS011;63966;47.914;22.266;2023-04-30T01:41:34;20.95;;;10.52;;
75386;SDS011;63966;47.914;22.266;2023-04-30T01:45:05;17.40;;;9.73;;
75386;SDS011;63966;47.914;22.266;2023-04-30T01:51:40;18.33;;;9.73;;
75386;SDS011;63966;47.914;22.266;2023-04-30T01:54:48;17.73;;;9.90;;
75386;SDS011;63966;47.914;22.266;2023-04-30T01:58:04;19.75;;;9.95;;
75386;SDS011;63966;47.914;22.266;2023-04-30T02:01:23;19.30;;;10.07;;
75386;SDS011;63966;47.914;22.266;2023-04-30T02:04:28;15.90;;;9.37;;
75386;SDS011;63966;47.914;22.266;2023-04-30T02:07:39;21.15;;;10.23;;
75386;SDS011;63966;47.914;22.266;2023-04-30T02:10:45;17.52;;;9.93;;
75386;SDS011;63966;47.914;22.266;2023-04-30T02:13:49;18.50;;;10.10;;
75386;SDS011;63966;47.914;22.266;2023-04-30T02:16:52;18.43;;;10.17;;
75386;SDS011;63966;47.914;22.266;2023-04-30T02:19:56;18.20;;;10.23;;
75386;SDS011;63966;47.914;22.266;2023-04-30T02:23:00;18.48;;;10.02;;
75386;SDS011;63966;47.914;22.266;2023-04-30T02:26:05;18.10;;;8.88;;
75386;SDS011;63966;47.914;22.266;2023-04-30T02:29:08;16.45;;;9.57;;
75386;SDS011;63966;47.914;22.266;2023-04-30T02:32:12;16.13;;;9.30;;
75386;SDS011;63966;47.914;22.266;2023-04-30T02:35:16;20.97;;;9.73;;
75386;SDS011;63966;47.914;22.266;2023-04-30T02:38:19;23.27;;;10.77;;
75386;SDS011;63966;47.914;22.266;2023-04-30T02:41:23;21.58;;;11.68;;
75386;SDS011;63966;47.914;22.266;2023-04-30T02:44:27;51.13;;;21.40;;
75386;SDS011;63966;47.914;22.266;2023-04-30T02:47:31;29.07;;;13.17;;
75386;SDS011;63966;47.914;22.266;2023-04-30T02:50:34;25.27;;;11.70;;
75386;SDS011;63966;47.914;22.266;2023-04-30T02:53:38;22.60;;;11.95;;
75386;SDS011;63966;47.914;22.266;2023-04-30T02:56:41;24.63;;;13.35;;
75386;SDS011;63966;47.914;22.266;2023-04-30T02:59:45;21.73;;;12.40;;
75386;SDS011;63966;47.914;22.266;2023-04-30T03:02:49;22.37;;;11.37;;
75386;SDS011;63966;47.914;22.266;2023-04-30T03:05:52;22.57;;;11.97;;
75386;SDS011;63966;47.914;22.266;2023-04-30T03:08:58;21.42;;;12.32;;
75386;SDS011;63966;47.914;22.266;2023-04-30T03:12:02;24.35;;;11.02;;
75386;SDS011;63966;47.914;22.266;2023-04-30T03:15:06;21.23;;;11.52;;
75386;SDS011;63966;47.914;22.266;2023-04-30T03:18:10;19.73;;;10.97;;
75386;SDS011;63966;47.914;22.266;2023-04-30T03:21:14;20.40;;;9.73;;
75386;SDS011;63966;47.914;22.266;2023-04-30T03:24:17;14.63;;;8.63;;
75386;SDS011;63966;47.914;22.266;2023-04-30T03:27:21;21.05;;;10.27;;
75386;SDS011;63966;47.914;22.266;2023-04-30T03:30:24;18.92;;;10.25;;
75386;SDS011;63966;47.914;22.266;2023-04-30T03:33:28;16.53;;;9.87;;
75386;SDS011;63966;47.914;22.266;2023-04-30T03:36:32;17.00;;;9.27;;
75386;SDS011;63966;47.914;22.266;2023-04-30T03:39:36;15.15;;;9.20;;
75386;SDS011;63966;47.914;22.266;2023-04-30T03:42:39;20.90;;;9.98;;
75386;SDS011;63966;47.914;22.266;2023-04-30T03:45:43;16.73;;;9.45;;
75386;SDS011;63966;47.914;22.266;2023-04-30T03:48:46;21.17;;;10.53;;
75386;SDS011;63966;47.914;22.266;2023-04-30T03:51:50;17.03;;;9.73;;
75386;SDS011;63966;47.914;22.266;2023-04-30T03:54:53;16.48;;;9.38;;
75386;SDS011;63966;47.914;22.266;2023-04-30T03:57:57;17.67;;;10.52;;
75386;SDS011;63966;47.914;22.266;2023-04-30T04:01:00;17.48;;;10.23;;
75386;SDS011;63966;47.914;22.266;2023-04-30T04:04:05;17.17;;;10.30;;
75386;SDS011;63966;47.914;22.266;2023-04-30T04:07:09;16.40;;;10.03;;
75386;SDS011;63966;47.914;22.266;2023-04-30T04:10:12;16.20;;;10.43;;
75386;SDS011;63966;47.914;22.266;2023-04-30T04:13:16;17.73;;;10.43;;
75386;SDS011;63966;47.914;22.266;2023-04-30T04:16:19;15.15;;;9.88;;
75386;SDS011;63966;47.914;22.266;2023-04-30T04:19:23;18.70;;;11.00;;
75386;SDS011;63966;47.914;22.266;2023-04-30T04:22:30;20.33;;;12.10;;
75386;SDS011;63966;47.914;22.266;2023-04-30T04:25:33;20.95;;;11.70;;
75386;SDS011;63966;47.914;22.266;2023-04-30T04:28:37;20.10;;;10.05;;
75386;SDS011;63966;47.914;22.266;2023-04-30T04:31:41;15.90;;;9.25;;
75386;SDS011;63966;47.914;22.266;2023-04-30T04:34:55;15.97;;;10.13;;
75386;SDS011;63966;47.914;22.266;2023-04-30T04:37:59;15.20;;;9.03;;
75386;SDS011;63966;47.914;22.266;2023-04-30T04:41:02;13.88;;;8.70;;
75386;SDS011;63966;47.914;22.266;2023-04-30T04:44:06;13.75;;;9.35;;
75386;SDS011;63966;47.914;22.266;2023-04-30T04:47:10;11.80;;;8.57;;
75386;SDS011;63966;47.914;22.266;2023-04-30T04:50:14;12.77;;;8.50;;
75386;SDS011;63966;47.914;22.266;2023-04-30T04:53:17;14.10;;;9.53;;
75386;SDS011;63966;47.914;22.266;2023-04-30T04:56:21;14.88;;;8.95;;
75386;SDS011;63966;47.914;22.266;2023-04-30T04:59:24;15.90;;;9.50;;
75386;SDS011;63966;47.914;22.266;2023-04-30T05:02:29;16.98;;;9.38;;
75386;SDS011;63966;47.914;22.266;2023-04-30T05:05:32;12.30;;;9.07;;
75386;SDS011;63966;47.914;22.266;2023-04-30T05:08:37;15.27;;;9.27;;
75386;SDS011;63966;47.914;22.266;2023-04-30T05:11:41;15.00;;;9.60;;
75386;SDS011;63966;47.914;22.266;2023-04-30T05:14:45;14.77;;;9.98;;
75386;SDS011;63966;47.914;22.266;2023-04-30T05:17:50;13.00;;;9.05;;
75386;SDS011;63966;47.914;22.266;2023-04-30T05:20:54;14.47;;;9.33;;
75386;SDS011;63966;47.914;22.266;2023-04-30T05:23:57;15.53;;;10.73;;
75386;SDS011;63966;47.914;22.266;2023-04-30T05:27:01;16.90;;;9.73;;
75386;SDS011;63966;47.914;22.266;2023-04-30T05:30:06;15.20;;;10.55;;
75386;SDS011;63966;47.914;22.266;2023-04-30T05:33:11;14.63;;;9.45;;
75386;SDS011;63966;47.914;22.266;2023-04-30T05:36:15;15.97;;;10.10;;
75386;SDS011;63966;47.914;22.266;2023-04-30T05:39:18;16.30;;;9.63;;
75386;SDS011;63966;47.914;22.266;2023-04-30T05:42:22;13.65;;;9.02;;
75386;SDS011;63966;47.914;22.266;2023-04-30T05:45:25;13.85;;;9.57;;
75386;SDS011;63966;47.914;22.266;2023-04-30T05:48:29;15.38;;;9.50;;
75386;SDS011;63966;47.914;22.266;2023-04-30T05:51:32;13.60;;;9.85;;
75386;SDS011;63966;47.914;22.266;2023-04-30T05:54:36;14.47;;;10.03;;
75386;SDS011;63966;47.914;22.266;2023-04-30T05:57:39;14.55;;;8.82;;
75386;SDS011;63966;47.914;22.266;2023-04-30T06:00:42;14.23;;;9.80;;
75386;SDS011;63966;47.914;22.266;2023-04-30T06:03:50;14.25;;;10.13;;
75386;SDS011;63966;47.914;22.266;2023-04-30T06:06:54;16.65;;;9.27;;
75386;SDS011;63966;47.914;22.266;2023-04-30T06:09:57;12.27;;;8.90;;
75386;SDS011;63966;47.914;22.266;2023-04-30T06:13:00;12.88;;;9.60;;
75386;SDS011;63966;47.914;22.266;2023-04-30T06:16:04;16.40;;;9.38;;
75386;SDS011;63966;47.914;22.266;2023-04-30T06:19:10;13.43;;;9.65;;
75386;SDS011;63966;47.914;22.266;2023-04-30T06:22:14;13.82;;;8.68;;
75386;SDS011;63966;47.914;22.266;2023-04-30T06:25:17;13.40;;;8.40;;
75386;SDS011;63966;47.914;22.266;2023-04-30T06:28:23;11.48;;;7.57;;
75386;SDS011;63966;47.914;22.266;2023-04-30T06:31:27;9.75;;;6.60;;
75386;SDS011;63966;47.914;22.266;2023-04-30T06:34:30;11.18;;;7.60;;
75386;SDS011;63966;47.914;22.266;2023-04-30T06:37:34;9.75;;;7.25;;
75386;SDS011;63966;47.914;22.266;2023-04-30T06:40:39;9.40;;;7.00;;
75386;SDS011;63966;47.914;22.266;2023-04-30T06:43:42;11.90;;;6.40;;
75386;SDS011;63966;47.914;22.266;2023-04-30T06:46:46;10.90;;;7.30;;
75386;SDS011;63966;47.914;22.266;2023-04-30T06:49:49;12.45;;;6.85;;
75386;SDS011;63966;47.914;22.266;2023-04-30T06:52:54;11.73;;;7.18;;
75386;SDS011;63966;47.914;22.266;2023-04-30T06:55:58;13.23;;;7.40;;
75386;SDS011;63966;47.914;22.266;2023-04-30T06:59:01;10.52;;;7.43;;
75386;SDS011;63966;47.914;22.266;2023-04-30T07:02:05;13.30;;;8.10;;
75386;SDS011;63966;47.914;22.266;2023-04-30T07:05:08;11.32;;;8.30;;
75386;SDS011;63966;47.914;22.266;2023-04-30T07:08:13;11.43;;;7.75;;
75386;SDS011;63966;47.914;22.266;2023-04-30T07:11:16;10.80;;;6.53;;
75386;SDS011;63966;47.914;22.266;2023-04-30T07:14:20;9.15;;;6.05;;
75386;SDS011;63966;47.914;22.266;2023-04-30T07:17:23;9.02;;;5.90;;
75386;SDS011;63966;47.914;22.266;2023-04-30T07:20:29;11.48;;;6.22;;
75386;SDS011;63966;47.914;22.266;2023-04-30T07:23:32;12.35;;;6.40;;
75386;SDS011;63966;47.914;22.266;2023-04-30T07:26:35;10.53;;;6.50;;
75386;SDS011;63966;47.914;22.266;2023-04-30T07:29:39;10.90;;;6.82;;
75386;SDS011;63966;47.914;22.266;2023-04-30T07:32:42;11.68;;;7.38;;
75386;SDS011;63966;47.914;22.266;2023-04-30T07:35:46;10.05;;;6.10;;
75386;SDS011;63966;47.914;22.266;2023-04-30T07:38:49;11.55;;;7.25;;
75386;SDS011;63966;47.914;22.266;2023-04-30T07:41:53;10.80;;;6.60;;
75386;SDS011;63966;47.914;22.266;2023-04-30T07:44:56;9.18;;;6.25;;
75386;SDS011;63966;47.914;22.266;2023-04-30T07:48:01;9.40;;;6.35;;
75386;SDS011;63966;47.914;22.266;2023-04-30T07:51:05;8.55;;;5.97;;
75386;SDS011;63966;47.914;22.266;2023-04-30T07:54:09;10.85;;;6.22;;
75386;SDS011;63966;47.914;22.266;2023-04-30T07:57:12;11.00;;;6.90;;
75386;SDS011;63966;47.914;22.266;2023-04-30T08:00:16;10.40;;;6.65;;
75386;SDS011;63966;47.914;22.266;2023-04-30T08:03:19;11.25;;;6.95;;
75386;SDS011;63966;47.914;22.266;2023-04-30T08:06:24;10.43;;;6.00;;
75386;SDS011;63966;47.914;22.266;2023-04-30T08:09:29;8.10;;;5.85;;
75386;SDS011;63966;47.914;22.266;2023-04-30T08:12:34;9.97;;;6.07;;
75386;SDS011;63966;47.914;22.266;2023-04-30T08:15:38;12.60;;;7.00;;
75386;SDS011;63966;47.914;22.266;2023-04-30T08:18:42;10.60;;;7.15;;
75386;SDS011;63966;47.914;22.266;2023-04-30T08:21:47;10.35;;;5.72;;
75386;SDS011;63966;47.914;22.266;2023-04-30T08:24:50;9.35;;;6.30;;
75386;SDS011;63966;47.914;22.266;2023-04-30T08:27:54;8.10;;;6.10;;
75386;SDS011;63966;47.914;22.266;2023-04-30T08:30:57;10.20;;;5.60;;
75386;SDS011;63966;47.914;22.266;2023-04-30T08:34:01;9.20;;;6.28;;
75386;SDS011;63966;47.914;22.266;2023-04-30T08:37:05;9.18;;;5.45;;
75386;SDS011;63966;47.914;22.266;2023-04-30T08:40:09;7.35;;;5.18;;
75386;SDS011;63966;47.914;22.266;2023-04-30T08:43:13;9.63;;;4.60;;
75386;SDS011;63966;47.914;22.266;2023-04-30T08:46:18;8.30;;;4.43;;
75386;SDS011;63966;47.914;22.266;2023-04-30T08:49:24;8.00;;;4.93;;
75386;SDS011;63966;47.914;22.266;2023-04-30T08:52:29;8.20;;;4.70;;
75386;SDS011;63966;47.914;22.266;2023-04-30T08:55:34;9.80;;;4.57;;
75386;SDS011;63966;47.914;22.266;2023-04-30T08:58:41;8.20;;;4.60;;
75386;SDS011;63966;47.914;22.266;2023-04-30T09:01:45;7.50;;;4.40;;
75386;SDS011;63966;47.914;22.266;2023-04-30T09:04:49;10.02;;;4.82;;
75386;SDS011;63966;47.914;22.266;2023-04-30T09:07:56;7.25;;;4.20;;
75386;SDS011;63966;47.914;22.266;2023-04-30T09:11:18;7.27;;;3.93;;
75386;SDS011;63966;47.914;22.266;2023-04-30T09:14:24;6.70;;;3.93;;
75386;SDS011;63966;47.914;22.266;2023-04-30T09:17:29;7.35;;;4.22;;
75386;SDS011;63966;47.914;22.266;2023-04-30T09:20:34;8.10;;;4.45;;
75386;SDS011;63966;47.914;22.266;2023-04-30T09:23:54;7.75;;;4.20;;
75386;SDS011;63966;47.914;22.266;2023-04-30T09:26:58;6.23;;;3.90;;
75386;SDS011;63966;47.914;22.266;2023-04-30T09:30:31;8.17;;;4.50;;
75386;SDS011;63966;47.914;22.266;2023-04-30T09:33:44;8.77;;;4.32;;
75386;SDS011;63966;47.914;22.266;2023-04-30T09:36:51;6.78;;;3.80;;
75386;SDS011;63966;47.914;22.266;2023-04-30T09:39:56;9.45;;;4.82;;
75386;SDS011;63966;47.914;22.266;2023-04-30T09:42:59;11.97;;;4.30;;
75386;SDS011;63966;47.914;22.266;2023-04-30T09:46:03;8.40;;;4.53;;
75386;SDS011;63966;47.914;22.266;2023-04-30T09:49:07;9.25;;;4.60;;
75386;SDS011;63966;47.914;22.266;2023-04-30T09:52:14;8.20;;;4.28;;
75386;SDS011;63966;47.914;22.266;2023-04-30T09:55:18;7.38;;;4.28;;
75386;SDS011;63966;47.914;22.266;2023-04-30T09:58:22;8.63;;;4.23;;
75386;SDS011;63966;47.914;22.266;2023-04-30T10:01:29;6.80;;;4.20;;
75386;SDS011;63966;47.914;22.266;2023-04-30T10:04:38;7.10;;;3.83;;
75386;SDS011;63966;47.914;22.266;2023-04-30T10:07:43;8.77;;;3.88;;
75386;SDS011;63966;47.914;22.266;2023-04-30T10:10:49;8.23;;;4.00;;
75386;SDS011;63966;47.914;22.266;2023-04-30T10:14:07;10.27;;;4.50;;
75386;SDS011;63966;47.914;22.266;2023-04-30T10:17:13;7.70;;;3.87;;
75386;SDS011;63966;47.914;22.266;2023-04-30T10:20:18;7.70;;;4.55;;
75386;SDS011;63966;47.914;22.266;2023-04-30T10:23:23;6.25;;;3.70;;
75386;SDS011;63966;47.914;22.266;2023-04-30T10:26:27;6.40;;;3.70;;
75386;SDS011;63966;47.914;22.266;2023-04-30T10:29:32;6.90;;;3.50;;
75386;SDS011;63966;47.914;22.266;2023-04-30T10:36:10;7.68;;;3.83;;
75386;SDS011;63966;47.914;22.266;2023-04-30T10:39:22;7.88;;;3.17;;
75386;SDS011;63966;47.914;22.266;2023-04-30T10:42:33;5.63;;;3.10;;
75386;SDS011;63966;47.914;22.266;2023-04-30T10:45:38;7.03;;;3.00;;
75386;SDS011;63966;47.914;22.266;2023-04-30T10:48:48;7.37;;;2.73;;
75386;SDS011;63966;47.914;22.266;2023-04-30T10:51:57;6.35;;;2.67;;
75386;SDS011;63966;47.914;22.266;2023-04-30T10:55:08;5.82;;;2.63;;
75386;SDS011;63966;47.914;22.266;2023-04-30T10:58:22;5.50;;;2.53;;
75386;SDS011;63966;47.914;22.266;2023-04-30T11:01:30;9.00;;;2.30;;
75386;SDS011;63966;47.914;22.266;2023-04-30T11:08:10;4.35;;;2.35;;
75386;SDS011;63966;47.914;22.266;2023-04-30T11:11:17;4.13;;;2.10;;
75386;SDS011;63966;47.914;22.266;2023-04-30T11:14:24;6.15;;;3.63;;
75386;SDS011;63966;47.914;22.266;2023-04-30T11:17:27;5.60;;;2.63;;
75386;SDS011;63966;47.914;22.266;2023-04-30T11:20:31;9.93;;;4.90;;
75386;SDS011;63966;47.914;22.266;2023-04-30T11:23:35;5.80;;;2.83;;
75386;SDS011;63966;47.914;22.266;2023-04-30T11:27:02;7.80;;;3.65;;
75386;SDS011;63966;47.914;22.266;2023-04-30T11:30:11;6.32;;;2.63;;
75386;SDS011;63966;47.914;22.266;2023-04-30T11:33:17;5.53;;;2.07;;
75386;SDS011;63966;47.914;22.266;2023-04-30T11:36:20;4.03;;;1.80;;
75386;SDS011;63966;47.914;22.266;2023-04-30T11:39:25;6.45;;;2.30;;
75386;SDS011;63966;47.914;22.266;2023-04-30T11:42:30;4.97;;;1.83;;
75386;SDS011;63966;47.914;22.266;2023-04-30T11:45:37;8.43;;;1.88;;
75386;SDS011;63966;47.914;22.266;2023-04-30T11:48:44;5.60;;;2.00;;
75386;SDS011;63966;47.914;22.266;2023-04-30T11:51:49;3.47;;;1.50;;
75386;SDS011;63966;47.914;22.266;2023-04-30T11:54:54;11.98;;;2.15;;
75386;SDS011;63966;47.914;22.266;2023-04-30T11:57:59;4.10;;;1.55;;
75386;SDS011;63966;47.914;22.266;2023-04-30T12:01:02;6.30;;;1.98;;
75386;SDS011;63966;47.914;22.266;2023-04-30T12:04:07;3.57;;;1.30;;
75386;SDS011;63966;47.914;22.266;2023-04-30T12:07:11;4.40;;;1.37;;
75386;SDS011;63966;47.914;22.266;2023-04-30T12:10:15;4.45;;;1.70;;
75386;SDS011;63966;47.914;22.266;2023-04-30T12:13:22;5.85;;;1.77;;
75386;SDS011;63966;47.914;22.266;2023-04-30T12:16:26;5.00;;;1.50;;
75386;SDS011;63966;47.914;22.266;2023-04-30T12:19:39;4.90;;;1.80;;
75386;SDS011;63966;47.914;22.266;2023-04-30T12:22:43;3.67;;;1.60;;
75386;SDS011;63966;47.914;22.266;2023-04-30T12:25:47;6.63;;;1.60;;
75386;SDS011;63966;47.914;22.266;2023-04-30T12:28:50;3.70;;;2.03;;
75386;SDS011;63966;47.914;22.266;2023-04-30T12:31:54;3.47;;;1.70;;
75386;SDS011;63966;47.914;22.266;2023-04-30T12:34:57;3.90;;;1.50;;
75386;SDS011;63966;47.914;22.266;2023-04-30T12:38:06;3.30;;;1.60;;
75386;SDS011;63966;47.914;22.266;2023-04-30T12:41:11;3.80;;;1.63;;
75386;SDS011;63966;47.914;22.266;2023-04-30T12:44:23;4.00;;;1.80;;
75386;SDS011;63966;47.914;22.266;2023-04-30T12:47:28;4.43;;;2.13;;
75386;SDS011;63966;47.914;22.266;2023-04-30T12:50:32;3.63;;;1.80;;
75386;SDS011;63966;47.914;22.266;2023-04-30T12:53:45;5.17;;;2.00;;
75386;SDS011;63966;47.914;22.266;2023-04-30T12:57:04;5.22;;;1.83;;
75386;SDS011;63966;47.914;22.266;2023-04-30T13:00:12;4.93;;;1.90;;
75386;SDS011;63966;47.914;22.266;2023-04-30T13:03:19;5.07;;;1.88;;
75386;SDS011;63966;47.914;22.266;2023-04-30T13:06:23;3.70;;;2.03;;
75386;SDS011;63966;47.914;22.266;2023-04-30T13:09:28;5.70;;;1.93;;
75386;SDS011;63966;47.914;22.266;2023-04-30T13:12:36;4.38;;;1.90;;
75386;SDS011;63966;47.914;22.266;2023-04-30T13:15:39;5.53;;;1.95;;
75386;SDS011;63966;47.914;22.266;2023-04-30T13:18:46;4.28;;;1.80;;
75386;SDS011;63966;47.914;22.266;2023-04-30T13:21:49;4.37;;;1.90;;
75386;SDS011;63966;47.914;22.266;2023-04-30T13:24:52;4.23;;;1.90;;
75386;SDS011;63966;47.914;22.266;2023-04-30T13:27:56;6.40;;;1.98;;
75386;SDS011;63966;47.914;22.266;2023-04-30T13:30:59;9.25;;;2.00;;
75386;SDS011;63966;47.914;22.266;2023-04-30T13:34:03;8.05;;;1.80;;
75386;SDS011;63966;47.914;22.266;2023-04-30T13:37:07;5.60;;;2.00;;
75386;SDS011;63966;47.914;22.266;2023-04-30T13:40:11;8.47;;;4.97;;
75386;SDS011;63966;47.914;22.266;2023-04-30T13:43:14;3.88;;;1.70;;
75386;SDS011;63966;47.914;22.266;2023-04-30T13:46:18;3.80;;;1.80;;
75386;SDS011;63966;47.914;22.266;2023-04-30T13:49:21;3.83;;;2.22;;
75386;SDS011;63966;47.914;22.266;2023-04-30T13:52:25;4.50;;;2.13;;
75386;SDS011;63966;47.914;22.266;2023-04-30T13:55:28;4.27;;;1.50;;
75386;SDS011;63966;47.914;22.266;2023-04-30T13:58:32;7.38;;;1.90;;
75386;SDS011;63966;47.914;22.266;2023-04-30T14:01:35;6.85;;;1.70;;
75386;SDS011;63966;47.914;22.266;2023-04-30T14:04:39;5.45;;;1.67;;
75386;SDS011;63966;47.914;22.266;2023-04-30T14:07:55;6.17;;;1.40;;
75386;SDS011;63966;47.914;22.266;2023-04-30T14:10:59;5.77;;;1.60;;
75386;SDS011;63966;47.914;22.266;2023-04-30T14:14:03;3.60;;;1.50;;
75386;SDS011;63966;47.914;22.266;2023-04-30T14:17:07;2.85;;;1.63;;
75386;SDS011;63966;47.914;22.266;2023-04-30T14:20:10;4.75;;;1.60;;
75386;SDS011;63966;47.914;22.266;2023-04-30T14:23:15;4.23;;;1.70;;
75386;SDS011;63966;47.914;22.266;2023-04-30T14:26:18;8.77;;;1.80;;
75386;SDS011;63966;47.914;22.266;2023-04-30T14:29:22;4.60;;;1.92;;
75386;SDS011;63966;47.914;22.266;2023-04-30T14:32:26;5.50;;;2.08;;
75386;SDS011;63966;47.914;22.266;2023-04-30T14:35:30;3.92;;;2.08;;
75386;SDS011;63966;47.914;22.266;2023-04-30T14:38:34;5.03;;;2.07;;
75386;SDS011;63966;47.914;22.266;2023-04-30T14:41:37;5.17;;;2.00;;
75386;SDS011;63966;47.914;22.266;2023-04-30T14:44:41;6.10;;;2.17;;
75386;SDS011;63966;47.914;22.266;2023-04-30T14:47:45;10.05;;;3.38;;
75386;SDS011;63966;47.914;22.266;2023-04-30T14:50:48;4.38;;;2.35;;
75386;SDS011;63966;47.914;22.266;2023-04-30T14:53:53;6.50;;;3.00;;
75386;SDS011;63966;47.914;22.266;2023-04-30T14:56:57;5.50;;;2.20;;
75386;SDS011;63966;47.914;22.266;2023-04-30T15:00:00;5.22;;;2.00;;
75386;SDS011;63966;47.914;22.266;2023-04-30T15:03:04;7.75;;;2.08;;
75386;SDS011;63966;47.914;22.266;2023-04-30T15:06:07;4.30;;;2.10;;
75386;SDS011;63966;47.914;22.266;2023-04-30T15:09:12;5.43;;;2.30;;
75386;SDS011;63966;47.914;22.266;2023-04-30T15:12:16;4.57;;;2.10;;
75386;SDS011;63966;47.914;22.266;2023-04-30T15:15:19;5.53;;;2.40;;
75386;SDS011;63966;47.914;22.266;2023-04-30T15:18:29;6.85;;;2.65;;
75386;SDS011;63966;47.914;22.266;2023-04-30T15:21:33;5.85;;;2.60;;
75386;SDS011;63966;47.914;22.266;2023-04-30T15:24:37;6.33;;;2.83;;
75386;SDS011;63966;47.914;22.266;2023-04-30T15:27:40;6.13;;;2.97;;
75386;SDS011;63966;47.914;22.266;2023-04-30T15:30:43;5.05;;;2.60;;
75386;SDS011;63966;47.914;22.266;2023-04-30T15:33:47;5.40;;;2.55;;
75386;SDS011;63966;47.914;22.266;2023-04-30T15:36:50;4.85;;;2.42;;
75386;SDS011;63966;47.914;22.266;2023-04-30T15:39:54;5.83;;;2.60;;
75386;SDS011;63966;47.914;22.266;2023-04-30T15:42:58;5.70;;;2.63;;
75386;SDS011;63966;47.914;22.266;2023-04-30T15:46:01;7.05;;;2.70;;
75386;SDS011;63966;47.914;22.266;2023-04-30T15:49:05;6.03;;;2.45;;
75386;SDS011;63966;47.914;22.266;2023-04-30T15:52:09;5.30;;;2.58;;
75386;SDS011;63966;47.914;22.266;2023-04-30T15:55:12;5.53;;;2.50;;
75386;SDS011;63966;47.914;22.266;2023-04-30T15:58:16;5.10;;;2.30;;
75386;SDS011;63966;47.914;22.266;2023-04-30T16:01:20;5.25;;;2.50;;
75386;SDS011;63966;47.914;22.266;2023-04-30T16:04:24;4.35;;;2.30;;
75386;SDS011;63966;47.914;22.266;2023-04-30T16:07:29;6.30;;;2.22;;
75386;SDS011;63966;47.914;22.266;2023-04-30T16:10:33;4.93;;;2.23;;
75386;SDS011;63966;47.914;22.266;2023-04-30T16:13:37;5.20;;;2.40;;
75386;SDS011;63966;47.914;22.266;2023-04-30T16:16:40;4.97;;;2.10;;
75386;SDS011;63966;47.914;22.266;2023-04-30T16:19:44;4.90;;;2.72;;
75386;SDS011;63966;47.914;22.266;2023-04-30T16:22:48;4.75;;;2.30;;
75386;SDS011;63966;47.914;22.266;2023-04-30T16:25:51;5.73;;;2.60;;
75386;SDS011;63966;47.914;22.266;2023-04-30T16:28:57;5.53;;;2.03;;
75386;SDS011;63966;47.914;22.266;2023-04-30T16:32:01;5.20;;;2.67;;
75386;SDS011;63966;47.914;22.266;2023-04-30T16:35:05;5.47;;;2.50;;
75386;SDS011;63966;47.914;22.266;2023-04-30T16:38:09;5.63;;;2.50;;
75386;SDS011;63966;47.914;22.266;2023-04-30T16:41:13;7.10;;;2.60;;
75386;SDS011;63966;47.914;22.266;2023-04-30T16:44:18;5.40;;;2.20;;
75386;SDS011;63966;47.914;22.266;2023-04-30T16:47:21;6.32;;;3.20;;
75386;SDS011;63966;47.914;22.266;2023-04-30T16:50:25;6.68;;;2.40;;
75386;SDS011;63966;47.914;22.266;2023-04-30T16:53:29;8.02;;;2.80;;
75386;SDS011;63966;47.914;22.266;2023-04-30T16:56:32;5.63;;;2.40;;
75386;SDS011;63966;47.914;22.266;2023-04-30T16:59:37;6.13;;;2.70;;
75386;SDS011;63966;47.914;22.266;2023-04-30T17:02:42;9.18;;;2.40;;
75386;SDS011;63966;47.914;22.266;2023-04-30T17:05:51;5.47;;;2.80;;
75386;SDS011;63966;47.914;22.266;2023-04-30T17:08:54;7.30;;;3.00;;
75386;SDS011;63966;47.914;22.266;2023-04-30T17:11:58;7.17;;;3.50;;
75386;SDS011;63966;47.914;22.266;2023-04-30T17:15:05;5.10;;;2.60;;
75386;SDS011;63966;47.914;22.266;2023-04-30T17:18:10;7.47;;;3.42;;
75386;SDS011;63966;47.914;22.266;2023-04-30T17:21:14;6.70;;;3.40;;
75386;SDS011;63966;47.914;22.266;2023-04-30T17:24:18;6.88;;;3.60;;
75386;SDS011;63966;47.914;22.266;2023-04-30T17:27:21;10.07;;;3.40;;
75386;SDS011;63966;47.914;22.266;2023-04-30T17:30:25;6.23;;;3.60;;
75386;SDS011;63966;47.914;22.266;2023-04-30T17:33:28;6.60;;;3.53;;
75386;SDS011;63966;47.914;22.266;2023-04-30T17:36:32;9.63;;;3.80;;
75386;SDS011;63966;47.914;22.266;2023-04-30T17:39:36;7.65;;;4.10;;
75386;SDS011;63966;47.914;22.266;2023-04-30T17:42:39;7.70;;;4.10;;
75386;SDS011;63966;47.914;22.266;2023-04-30T17:45:43;9.27;;;4.33;;
75386;SDS011;63966;47.914;22.266;2023-04-30T17:48:46;7.53;;;4.15;;
75386;SDS011;63966;47.914;22.266;2023-04-30T17:51:51;8.73;;;4.30;;
75386;SDS011;63966;47.914;22.266;2023-04-30T17:54:55;9.30;;;5.10;;
75386;SDS011;63966;47.914;22.266;2023-04-30T17:57:58;10.27;;;5.57;;
75386;SDS011;63966;47.914;22.266;2023-04-30T18:01:02;8.97;;;5.07;;
75386;SDS011;63966;47.914;22.266;2023-04-30T18:04:07;8.77;;;4.78;;
75386;SDS011;63966;47.914;22.266;2023-04-30T18:07:11;8.98;;;4.75;;
75386;SDS011;63966;47.914;22.266;2023-04-30T18:10:15;10.88;;;5.50;;
75386;SDS011;63966;47.914;22.266;2023-04-30T18:13:27;8.23;;;4.80;;
75386;SDS011;63966;47.914;22.266;2023-04-30T18:16:31;9.37;;;5.23;;
75386;SDS011;63966;47.914;22.266;2023-04-30T18:19:35;8.77;;;5.72;;
75386;SDS011;63966;47.914;22.266;2023-04-30T18:22:45;9.23;;;5.70;;
75386;SDS011;63966;47.914;22.266;2023-04-30T18:25:49;8.55;;;4.78;;
75386;SDS011;63966;47.914;22.266;2023-04-30T18:28:53;9.17;;;5.00;;